Time;durP1;ratioP1;P1;durP2;ratioP2;P2;SDS_P1;SDS_P2;PMS_P1;PMS_P2;Temp;Humidity;BMP_temperature;BMP_pressure;BME280_temperature;BME280_humidity;BME280_pressure;Samples;Min_cycle;Max_cycle;Signal;HPM_P1;HPM_P2
2022/12/26 00:01:30;;;;;;;9.95;5.85;;;;;;;16.36;64.22;100771.28;5071966;28;20395;-77
2022/12/26 00:04:00;;;;;;;9.05;6.40;;;;;;;16.33;64.20;100772.38;5071920;28;20049;-76
2022/12/26 00:06:31;;;;;;;12.32;6.50;;;;;;;16.30;64.28;100776.13;5071985;28;20044;-76
2022/12/26 00:09:01;;;;;;;11.13;5.78;;;;;;;16.27;64.35;100765.59;5072126;28;20049;-77
2022/12/26 00:11:29;;;;;;;9.73;5.85;;;;;;;16.25;64.48;100761.31;5071683;28;20049;-76
2022/12/26 00:14:00;;;;;;;10.25;6.18;;;;;;;16.24;64.33;100767.69;5071798;28;20041;-77
2022/12/26 00:16:28;;;;;;;10.27;6.10;;;;;;;16.20;64.29;100760.81;5071809;28;20055;-77
2022/12/26 00:18:59;;;;;;;10.15;6.18;;;;;;;16.17;64.38;100756.53;5072060;28;20059;-78
2022/12/26 00:21:30;;;;;;;9.85;5.82;;;;;;;16.17;64.34;100766.44;5071977;28;20436;-77
2022/12/26 00:23:59;;;;;;;10.70;5.90;;;;;;;16.14;64.45;100758.59;5071767;28;20134;-77
2022/12/26 00:26:32;;;;;;;11.90;6.68;;;;;;;16.12;64.40;100760.56;5071815;28;20392;-76
2022/12/26 00:29:00;;;;;;;8.70;5.87;;;;;;;16.10;64.55;100754.41;5071860;28;20047;-79
2022/12/26 00:31:31;;;;;;;11.13;6.45;;;;;;;16.09;64.50;100763.44;5071637;28;20101;-78
2022/12/26 00:33:59;;;;;;;10.32;6.03;;;;;;;16.06;64.51;100742.16;5071739;28;20374;-76
2022/12/26 00:36:30;;;;;;;9.70;5.82;;;;;;;16.03;64.44;100745.94;5071546;28;20048;-78
2022/12/26 00:39:00;;;;;;;10.63;6.30;;;;;;;16.01;64.47;100746.03;5071607;28;20044;-77
2022/12/26 00:41:29;;;;;;;9.88;5.88;;;;;;;16.00;64.61;100759.59;5071816;28;20543;-78
2022/12/26 00:43:57;;;;;;;9.52;5.93;;;;;;;15.97;64.43;100759.84;5071482;28;20094;-77
2022/12/26 00:46:26;;;;;;;11.10;5.90;;;;;;;15.96;64.49;100769.75;5071713;28;20041;-78
2022/12/26 00:48:54;;;;;;;10.32;6.07;;;;;;;15.94;64.52;100776.22;5071473;28;20052;-77
2022/12/26 00:51:23;;;;;;;11.60;6.60;;;;;;;15.91;64.62;100781.81;5071680;28;20059;-77
2022/12/26 00:53:52;;;;;;;11.50;6.45;;;;;;;15.86;64.77;100773.25;5075206;28;20048;-78
2022/12/26 00:56:20;;;;;;;11.32;6.72;;;;;;;15.89;64.58;100775.69;5075403;28;20051;-78
2022/12/26 00:58:49;;;;;;;10.85;6.68;;;;;;;15.86;64.60;100779.47;5075256;28;20060;-78
2022/12/26 01:01:19;;;;;;;10.93;7.00;;;;;;;15.85;64.52;100771.53;5075020;28;20115;-79
2022/12/26 01:03:49;;;;;;;10.65;5.90;;;;;;;15.81;64.55;100770.88;5075203;28;20170;-77
2022/12/26 01:06:17;;;;;;;12.35;6.97;;;;;;;15.79;64.52;100762.06;5075061;28;20115;-78
2022/12/26 01:08:46;;;;;;;10.77;6.85;;;;;;;15.78;64.72;100759.50;5075118;28;20052;-77
2022/12/26 01:11:38;;;;;;;9.93;6.57;;;;;;;15.76;64.67;100746.16;5074763;28;20055;-78
2022/12/26 01:14:08;;;;;;;11.65;6.85;;;;;;;15.74;64.74;100737.34;5074919;28;20041;-78
2022/12/26 01:16:37;;;;;;;10.10;6.50;;;;;;;15.72;64.59;100745.50;5074834;28;20091;-78
2022/12/26 01:19:06;;;;;;;12.02;6.47;;;;;;;15.70;64.66;100754.69;5075015;28;20048;-77
2022/12/26 01:21:34;;;;;;;10.80;6.63;;;;;;;15.68;64.70;100753.94;5074855;28;20048;-77
2022/12/26 01:24:02;;;;;;;11.38;6.47;;;;;;;15.67;64.69;100760.28;5074843;28;20167;-77
2022/12/26 01:26:32;;;;;;;11.13;7.20;;;;;;;15.64;64.69;100755.16;5073429;28;20440;-76
2022/12/26 01:29:00;;;;;;;13.88;6.93;;;;;;;15.61;64.75;100748.13;5074743;28;20098;-77
2022/12/26 01:31:28;;;;;;;12.52;7.03;;;;;;;15.61;64.74;100747.28;5074476;28;20086;-77
2022/12/26 01:33:56;;;;;;;14.48;7.53;;;;;;;15.58;64.81;100747.47;5074815;28;20064;-77
2022/12/26 01:36:24;;;;;;;10.75;6.80;;;;;;;15.55;64.82;100745.03;5074491;28;20052;-77
2022/12/26 01:38:52;;;;;;;12.07;6.85;;;;;;;15.54;64.82;100754.94;5074491;28;20094;-77
2022/12/26 01:41:21;;;;;;;9.75;6.03;;;;;;;15.53;64.80;100744.25;5074322;28;20048;-77
2022/12/26 01:43:54;;;;;;;12.35;7.15;;;;;;;15.52;64.83;100745.22;5074405;28;20146;-78
2022/12/26 01:46:27;;;;;;;10.25;6.43;;;;;;;15.50;64.82;100749.88;5074304;28;20048;-78
2022/12/26 01:48:58;;;;;;;;;;;;;;;15.49;64.88;100742.78;5074884;28;20048;-77
2022/12/26 01:51:31;;;;;;;10.95;7.03;;;;;;;15.46;64.80;100742.03;5074280;28;20019;-78
2022/12/26 01:54:02;;;;;;;11.48;6.53;;;;;;;15.43;64.82;100733.31;5072852;28;20046;-77
2022/12/26 01:56:51;;;;;;;11.15;7.07;;;;;;;15.42;64.86;100727.06;5074466;28;20048;-78
2022/12/26 01:59:24;;;;;;;11.00;6.93;;;;;;;15.40;64.93;100729.03;5074075;28;20040;-77
2022/12/26 02:01:55;;;;;;;11.27;6.97;;;;;;;15.39;64.84;100721.94;5073631;28;20067;-77
2022/12/26 02:07:15;;;;;;;11.27;6.75;;;;;;;15.36;64.94;100726.69;5072646;28;20065;-78
2022/12/26 02:09:43;;;;;;;12.93;6.75;;;;;;;15.33;64.97;100727.75;5074020;28;20486;-78
2022/12/26 02:12:16;;;;;;;11.50;7.13;;;;;;;15.34;64.78;100723.22;5073823;28;20374;-78
2022/12/26 02:15:10;;;;;;;9.75;6.68;;;;;;;15.30;65.06;100717.22;5073799;28;20058;-78
2022/12/26 02:17:39;;;;;;;11.93;7.20;;;;;;;15.30;64.89;100730.66;5073749;28;20048;-77
2022/12/26 02:20:17;;;;;;;12.07;7.50;;;;;;;15.29;64.99;100733.47;5073784;28;20047;-78
2022/12/26 02:23:30;;;;;;;11.32;7.15;;;;;;;15.28;64.91;100729.06;5073562;28;20067;-78
2022/12/26 02:26:30;;;;;;;11.88;7.30;;;;;;;15.25;65.02;100729.28;5073768;28;20049;-78
2022/12/26 02:29:36;;;;;;;11.73;7.13;;;;;;;15.21;65.13;100727.78;5069803;28;20052;-77
2022/12/26 02:32:15;;;;;;;11.00;6.85;;;;;;;15.21;65.01;100725.97;5073429;28;20041;-77
2022/12/26 02:34:56;;;;;;;11.52;7.30;;;;;;;15.18;64.88;100723.50;5073479;28;20413;-76
2022/12/26 02:37:41;;;;;;;11.65;7.70;;;;;;;15.17;65.07;100728.00;5073442;28;20052;-76
2022/12/26 02:40:27;;;;;;;11.00;7.00;;;;;;;15.14;65.06;100701.34;5073304;28;20048;-77
2022/12/26 02:42:59;;;;;;;10.32;7.30;;;;;;;15.14;65.03;100689.75;5073404;28;20543;-76
2022/12/26 02:48:30;;;;;;;10.80;7.20;;;;;;;15.10;64.93;100661.38;5073357;28;20436;-77
2022/12/26 03:14:07;;;;;;;12.25;7.85;;;;;;;14.96;64.97;100691.06;5071904;28;20056;-76
2022/12/26 03:19:23;;;;;;;11.45;7.90;;;;;;;14.92;65.01;100698.50;5072498;28;20052;-78
2022/12/26 03:21:53;;;;;;;12.23;7.50;;;;;;;14.92;65.05;100694.94;5072553;28;20083;-77
2022/12/26 03:24:23;;;;;;;10.88;7.32;;;;;;;14.87;64.82;100693.47;5072484;28;20068;-78
2022/12/26 03:26:53;;;;;;;12.05;7.78;;;;;;;14.87;64.97;100690.78;5072565;28;20064;-77
2022/12/26 03:32:12;;;;;;;12.43;7.80;;;;;;;14.83;64.97;100702.69;5072297;28;20047;-76
2022/12/26 03:34:42;;;;;;;12.68;7.80;;;;;;;14.84;64.99;100708.91;5072284;28;20083;-76
2022/12/26 03:37:31;;;;;;;10.43;7.25;;;;;;;14.82;64.96;100709.03;5072244;28;20040;-76
2022/12/26 04:41:34;;;;;;;11.90;7.50;;;;;;;14.55;64.90;100725.22;5071843;28;20041;-76
2022/12/26 04:44:06;;;;;;;13.35;7.55;;;;;;;14.44;64.98;100719.72;5075316;28;20072;-78
2022/12/26 04:46:38;;;;;;;11.70;7.43;;;;;;;14.46;64.77;100711.59;5075430;28;20492;-78
2022/12/26 04:51:57;;;;;;;13.15;7.97;;;;;;;14.53;65.25;100694.94;5075088;28;20057;-78
2022/12/26 04:54:25;;;;;;;10.82;6.72;;;;;;;14.65;65.29;100706.66;5074290;28;20123;-76
2022/12/26 04:56:54;;;;;;;10.98;7.32;;;;;;;14.75;65.23;100699.66;5075251;28;20048;-77
2022/12/26 04:59:23;;;;;;;11.27;7.72;;;;;;;14.81;65.09;100691.19;5075019;28;20045;-75
2022/12/26 05:10:18;;;;;;;9.68;6.70;;;;;;;15.30;64.53;100705.63;5074925;28;20047;-75
2022/12/26 05:12:46;;;;;;;11.07;7.20;;;;;;;15.39;64.56;100708.50;5075185;28;20048;-76
2022/12/26 05:15:15;;;;;;;11.23;7.32;;;;;;;15.45;64.33;100710.75;5074649;28;20497;-76
2022/12/26 05:28:56;;;;;;;11.60;7.47;;;;;;;15.52;64.02;100699.53;5074613;28;20159;-75
2022/12/26 05:31:24;;;;;;;10.38;7.25;;;;;;;15.49;64.04;100694.38;5074523;28;20490;-77
2022/12/26 05:34:05;;;;;;;11.25;7.53;;;;;;;15.49;64.21;100683.63;5074437;28;20464;-76
2022/12/26 05:36:37;;;;;;;10.68;7.10;;;;;;;15.46;64.02;100672.13;5073670;28;20494;-76
2022/12/26 05:39:07;;;;;;;11.65;7.50;;;;;;;15.43;64.15;100687.63;5074549;28;20066;-78
2022/12/26 05:41:35;;;;;;;10.48;7.10;;;;;;;15.42;64.09;100678.69;5074617;28;20056;-77
2022/12/26 05:44:03;;;;;;;10.07;6.93;;;;;;;15.39;64.14;100678.06;5074679;28;20086;-77
2022/12/26 05:46:31;;;;;;;10.90;7.10;;;;;;;15.36;64.09;100676.47;5074276;28;20048;-78
2022/12/26 05:49:00;;;;;;;11.55;7.80;;;;;;;15.33;64.03;100684.75;5074334;28;20052;-77
2022/12/26 05:51:29;;;;;;;10.88;7.50;;;;;;;15.30;63.99;100690.34;5073963;28;20456;-77
2022/12/26 05:53:57;;;;;;;11.07;7.30;;;;;;;15.29;64.17;100699.38;5074008;28;20052;-78
2022/12/26 05:56:26;;;;;;;10.38;6.93;;;;;;;15.25;64.22;100702.41;5074202;28;20105;-76
2022/12/26 05:58:55;;;;;;;12.35;7.95;;;;;;;15.21;64.26;100698.22;5073915;28;20040;-76
2022/12/26 06:01:24;;;;;;;11.82;7.72;;;;;;;15.18;64.34;100693.94;5073969;28;20040;-76
2022/12/26 06:03:54;;;;;;;11.00;7.55;;;;;;;15.14;64.26;100687.91;5073891;28;20439;-76
2022/12/26 06:06:24;;;;;;;11.52;7.93;;;;;;;15.12;64.34;100700.59;5073918;28;20048;-76
2022/12/26 06:08:55;;;;;;;11.77;7.57;;;;;;;15.10;64.45;100705.22;5073877;28;20041;-77
2022/12/26 06:11:25;;;;;;;12.20;7.95;;;;;;;15.07;64.34;100696.53;5073435;28;20040;-75
2022/12/26 06:13:54;;;;;;;10.95;6.97;;;;;;;15.05;64.40;100695.78;5073951;28;20072;-77
2022/12/26 06:16:23;;;;;;;11.52;7.80;;;;;;;15.02;64.27;100693.31;5072452;28;20049;-76
2022/12/26 06:18:51;;;;;;;11.55;7.68;;;;;;;15.00;64.20;100677.31;5073849;28;20044;-78
2022/12/26 06:21:20;;;;;;;12.77;8.40;;;;;;;14.97;63.98;100682.91;5074268;28;20052;-75
2022/12/26 06:23:49;;;;;;;13.60;7.80;;;;;;;14.94;64.10;100676.88;5073846;28;20386;-77
2022/12/26 06:26:19;;;;;;;12.73;7.82;;;;;;;14.92;63.96;100679.69;5073477;28;20049;-78
2022/12/26 06:28:47;;;;;;;11.75;7.90;;;;;;;14.89;64.00;100683.47;5073537;28;20066;-77
2022/12/26 06:31:19;;;;;;;11.90;7.93;;;;;;;14.86;64.06;100683.69;5073565;28;20052;-76
2022/12/26 06:33:48;;;;;;;13.23;8.10;;;;;;;14.84;64.12;100687.44;5072280;28;20045;-78
2022/12/26 06:36:19;;;;;;;11.05;7.47;;;;;;;14.81;63.99;100695.72;5073471;28;20109;-77
2022/12/26 06:38:47;;;;;;;12.45;8.48;;;;;;;14.78;64.12;100695.94;5072126;28;20052;-78
2022/12/26 06:41:18;;;;;;;12.00;7.90;;;;;;;14.77;64.14;100702.28;5073453;28;20076;-79
2022/12/26 06:43:48;;;;;;;11.45;7.93;;;;;;;14.72;64.13;100682.94;5073242;28;20068;-78
2022/12/26 06:46:19;;;;;;;12.63;8.20;;;;;;;14.71;64.03;100683.91;5073304;28;20083;-77
2022/12/26 06:48:47;;;;;;;12.30;8.48;;;;;;;14.69;63.92;100684.00;5073269;28;20458;-77
2022/12/26 06:51:18;;;;;;;14.05;8.93;;;;;;;14.68;63.99;100686.81;5072912;28;20136;-77
2022/12/26 06:53:46;;;;;;;11.63;8.15;;;;;;;14.67;63.94;100682.38;5071701;28;20052;-75
2022/12/26 06:56:16;;;;;;;12.45;8.73;;;;;;;14.64;64.03;100685.28;5072844;28;20127;-76
2022/12/26 06:58:44;;;;;;;12.65;8.23;;;;;;;14.61;63.95;100686.38;5072887;28;20055;-76
2022/12/26 07:01:16;;;;;;;14.15;8.85;;;;;;;14.58;64.03;100687.44;5072956;28;20048;-77
2022/12/26 07:03:45;;;;;;;12.43;8.13;;;;;;;14.57;63.93;100684.84;5072805;28;20099;-75
2022/12/26 07:06:23;;;;;;;13.63;8.93;;;;;;;14.54;64.00;100690.44;5072895;28;20087;-78
2022/12/26 07:08:51;;;;;;;13.15;8.38;;;;;;;14.52;63.98;100687.00;5073150;28;20102;-78
2022/12/26 07:11:22;;;;;;;15.05;9.18;;;;;;;14.51;63.94;100701.41;5072769;28;20438;-76
2022/12/26 07:13:50;;;;;;;13.75;8.98;;;;;;;14.48;63.86;100698.94;5072541;28;20493;-77
2022/12/26 07:16:20;;;;;;;14.05;8.63;;;;;;;14.47;64.11;100705.25;5071136;28;20045;-76
2022/12/26 07:18:48;;;;;;;13.30;8.73;;;;;;;14.44;63.93;100710.81;5073036;28;20041;-76
2022/12/26 07:21:16;;;;;;;14.10;9.27;;;;;;;14.40;63.86;100709.31;5072716;28;20120;-76
2022/12/26 07:23:45;;;;;;;14.73;8.85;;;;;;;14.40;63.95;100717.34;5072531;28;20048;-77
2022/12/26 07:26:13;;;;;;;12.45;8.32;;;;;;;14.40;64.09;100712.84;5072410;28;20040;-76
2022/12/26 07:28:42;;;;;;;14.52;8.73;;;;;;;14.37;64.03;100709.50;5071127;28;20060;-77
2022/12/26 07:31:16;;;;;;;14.70;9.10;;;;;;;14.35;64.11;100714.97;5072498;28;20040;-79
2022/12/26 07:33:48;;;;;;;13.68;8.93;;;;;;;14.34;64.08;100715.94;5072268;28;20036;-78
2022/12/26 07:36:17;;;;;;;12.82;8.63;;;;;;;14.32;64.10;100718.75;5068247;28;20073;-77
2022/12/26 07:38:45;;;;;;;15.32;8.93;;;;;;;14.29;64.17;100713.59;5074617;28;20050;-79
2022/12/26 07:44:00;;;;;;;13.73;8.15;;;;;;;14.26;64.36;100720.97;5072296;28;20098;-77
2022/12/26 07:46:28;;;;;;;13.52;9.07;;;;;;;14.24;64.33;100715.72;5072365;28;20119;-78
2022/12/26 07:48:58;;;;;;;13.50;8.43;;;;;;;14.22;64.25;100722.16;5071056;28;20083;-78
2022/12/26 07:51:27;;;;;;;13.98;8.68;;;;;;;14.21;64.14;100720.44;5072143;28;20520;-79
2022/12/26 07:53:55;;;;;;;13.90;8.48;;;;;;;14.21;64.29;100729.34;5071938;28;20044;-78
2022/12/26 07:56:23;;;;;;;14.23;8.55;;;;;;;14.19;64.27;100720.56;5071026;28;20421;-77
2022/12/26 07:58:52;;;;;;;13.40;8.57;;;;;;;14.18;64.36;100726.00;5072140;28;20071;-77
2022/12/26 08:01:20;;;;;;;13.50;8.82;;;;;;;14.18;64.26;100723.31;5071631;28;20556;-77
2022/12/26 08:03:49;;;;;;;14.85;9.13;;;;;;;14.17;64.21;100716.22;5072081;28;20048;-77
2022/12/26 08:06:19;;;;;;;13.82;8.80;;;;;;;14.14;64.32;100719.97;5072188;28;20044;-78
2022/12/26 08:08:47;;;;;;;13.98;8.98;;;;;;;14.13;64.39;100720.94;5072032;28;20048;-77
2022/12/26 08:11:22;;;;;;;15.90;9.50;;;;;;;14.11;64.48;100714.84;5072058;28;20048;-77
2022/12/26 08:13:51;;;;;;;13.77;8.80;;;;;;;14.09;64.51;100721.25;5072100;28;20312;-77
2022/12/26 08:16:19;;;;;;;14.55;9.13;;;;;;;14.11;64.34;100732.75;5072122;28;20075;-77
2022/12/26 08:18:47;;;;;;;13.95;8.40;;;;;;;14.08;64.47;100739.16;5072130;28;20045;-77
2022/12/26 08:21:16;;;;;;;14.23;8.98;;;;;;;14.06;64.41;100737.56;5071688;28;20049;-79
2022/12/26 08:23:47;;;;;;;14.57;9.20;;;;;;;14.06;64.44;100743.78;5072841;28;20045;-78
2022/12/26 08:26:19;;;;;;;13.30;8.80;;;;;;;14.07;64.35;100745.50;5072522;28;20045;-82
2022/12/26 08:28:48;;;;;;;14.60;9.13;;;;;;;14.03;64.41;100744.00;5071784;28;20044;-78
2022/12/26 08:31:17;;;;;;;13.80;8.65;;;;;;;14.05;64.50;100747.44;5071776;28;20040;-79
2022/12/26 08:33:45;;;;;;;14.88;8.98;;;;;;;14.03;64.56;100747.53;5071513;28;20041;-77
2022/12/26 08:36:17;;;;;;;12.48;8.52;;;;;;;14.01;64.50;100751.28;5071621;28;20048;-77
2022/12/26 08:38:47;;;;;;;13.32;8.85;;;;;;;14.01;64.61;100751.28;5070239;28;20048;-78
2022/12/26 08:41:17;;;;;;;14.18;9.00;;;;;;;14.02;64.62;100753.00;5071838;28;20131;-78
2022/12/26 08:43:48;;;;;;;14.05;9.10;;;;;;;14.00;64.45;100758.47;5070527;28;20045;-77
2022/12/26 08:46:37;;;;;;;15.35;9.55;;;;;;;13.98;64.47;100751.47;5071816;28;20044;-78
2022/12/26 08:49:05;;;;;;;14.77;9.40;;;;;;;13.98;64.55;100746.97;5071638;28;20110;-77
2022/12/26 08:51:33;;;;;;;15.38;9.52;;;;;;;13.96;64.53;100748.03;5070608;28;20057;-78
2022/12/26 08:54:03;;;;;;;15.38;9.23;;;;;;;13.97;64.47;100749.75;5070488;28;20052;-78
2022/12/26 08:56:31;;;;;;;14.10;8.95;;;;;;;13.96;64.69;100753.41;5070634;28;20041;-79
2022/12/26 08:59:00;;;;;;;15.02;9.60;;;;;;;13.96;64.74;100753.41;5071382;28;20079;-78
2022/12/26 09:01:29;;;;;;;13.38;8.80;;;;;;;13.96;64.66;100770.34;5071491;28;20044;-78
2022/12/26 09:04:00;;;;;;;14.00;9.57;;;;;;;13.94;64.70;100756.19;5071532;28;20048;-76
2022/12/26 09:06:29;;;;;;;17.77;10.20;;;;;;;13.94;64.74;100756.19;5070083;28;20045;-76
2022/12/26 09:08:59;;;;;;;15.65;9.30;;;;;;;13.93;64.75;100748.25;5071495;28;20080;-76
2022/12/26 09:11:29;;;;;;;16.70;10.00;;;;;;;13.91;64.69;100756.41;5071976;28;20426;-78
2022/12/26 09:14:00;;;;;;;14.43;9.32;;;;;;;13.91;64.69;100758.22;5075367;28;20478;-77
2022/12/26 09:16:31;;;;;;;16.80;9.68;;;;;;;13.91;64.73;100752.88;5074987;28;20102;-77
2022/12/26 09:19:06;;;;;;;16.13;9.18;;;;;;;13.90;64.86;100756.50;5074892;28;20037;-79
2022/12/26 09:21:34;;;;;;;15.77;9.32;;;;;;;13.91;64.70;100755.53;5074519;28;20048;-79
2022/12/26 09:24:06;;;;;;;16.95;9.60;;;;;;;13.90;64.91;100756.50;5073653;28;20571;-79
2022/12/26 09:26:35;;;;;;;15.40;9.60;;;;;;;13.89;64.76;100752.94;5075014;28;20114;-78
2022/12/26 09:29:03;;;;;;;14.98;9.30;;;;;;;13.88;64.94;100753.03;5074796;28;20067;-77
2022/12/26 09:31:33;;;;;;;16.40;10.07;;;;;;;13.90;64.86;100749.31;5074926;28;20055;-77
2022/12/26 09:34:02;;;;;;;17.42;10.80;;;;;;;13.92;64.97;100751.91;5073328;28;20048;-77
2022/12/26 09:36:33;;;;;;;20.70;10.85;;;;;;;13.96;65.05;100758.75;5073213;28;20509;-81
2022/12/26 09:39:01;;;;;;;20.80;11.30;;;;;;;14.06;69.27;100769.75;5090434;28;20040;-80
2022/12/26 09:41:50;;;;;;;26.02;11.63;;;;;;;14.10;70.90;100768.59;5094752;28;20119;-79
2022/12/26 09:44:23;;;;;;;25.25;12.07;;;;;;;14.16;72.37;100769.03;5093273;28;20127;-76
2022/12/26 09:47:02;;;;;;;22.58;11.65;;;;;;;14.22;71.96;100770.44;5093400;28;20139;-79
2022/12/26 09:49:34;;;;;;;22.70;11.65;;;;;;;14.22;70.90;100765.09;5094845;28;20059;-77
2022/12/26 09:52:09;;;;;;;26.60;12.35;;;;;;;14.21;69.25;100764.22;5079237;28;20130;-72
2022/12/26 09:54:42;;;;;;;23.58;11.30;;;;;;;14.18;69.27;100759.03;5074095;28;20409;-80
2022/12/26 09:57:16;;;;;;;22.02;11.82;;;;;;;14.17;68.80;100768.06;5073154;28;20114;-80
2022/12/26 09:59:51;;;;;;;23.00;12.02;;;;;;;14.15;68.79;100763.75;5073933;28;20048;-79
2022/12/26 10:02:22;;;;;;;22.73;11.82;;;;;;;14.14;68.63;100768.28;5074674;28;20555;-80
2022/12/26 10:04:51;;;;;;;22.27;11.35;;;;;;;14.11;68.57;100768.50;5074794;28;20045;-80
2022/12/26 10:07:27;;;;;;;27.30;12.35;;;;;;;14.10;68.56;100763.22;5074909;28;20394;-80
2022/12/26 10:10:04;;;;;;;24.50;12.15;;;;;;;14.10;68.28;100772.13;5074441;28;20052;-80
2022/12/26 10:12:40;;;;;;;24.13;11.38;;;;;;;14.08;68.35;100768.66;5074354;28;20068;-79
2022/12/26 10:15:25;;;;;;;22.35;11.23;;;;;;;14.07;68.20;100766.94;5074338;28;20079;-80
2022/12/26 10:17:58;;;;;;;23.05;11.50;;;;;;;14.07;68.00;100760.72;5074592;28;20144;-79
2022/12/26 10:20:34;;;;;;;25.20;11.68;;;;;;;14.07;67.95;100769.63;5074036;28;20044;-80
2022/12/26 10:23:13;;;;;;;23.92;11.27;;;;;;;14.05;67.96;100755.47;5073717;28;20055;-79
2022/12/26 10:25:47;;;;;;;18.75;10.85;;;;;;;14.04;67.91;100756.44;5074007;28;20076;-77
2022/12/26 10:28:22;;;;;;;21.13;11.38;;;;;;;14.04;67.71;100751.94;5074104;28;20375;-78
2022/12/26 10:30:56;;;;;;;19.38;11.38;;;;;;;14.03;67.79;100735.94;5074062;28;20049;-80
2022/12/26 10:33:33;;;;;;;21.83;11.98;;;;;;;14.03;67.67;100735.94;5074068;28;20049;-82
2022/12/26 10:36:03;;;;;;;23.08;12.23;;;;;;;14.03;67.64;100722.53;5073677;28;20047;-81
2022/12/26 10:38:37;;;;;;;21.27;11.60;;;;;;;14.03;67.41;100719.84;5073955;28;20041;-79
2022/12/26 10:41:11;;;;;;;22.45;11.18;;;;;;;14.02;67.39;100720.81;5073764;28;20052;-79
2022/12/26 10:43:43;;;;;;;21.38;11.80;;;;;;;14.01;67.32;100713.75;5073647;28;20075;-79
2022/12/26 10:46:29;;;;;;;24.08;11.73;;;;;;;14.02;67.40;100723.50;5073779;28;20040;-81
2022/12/26 10:48:59;;;;;;;21.48;11.30;;;;;;;14.01;67.42;100719.09;5073422;28;20079;-78
2022/12/26 10:51:31;;;;;;;21.27;11.43;;;;;;;14.01;67.22;100708.38;5072180;28;20103;-80
2022/12/26 10:53:59;;;;;;;25.13;12.52;;;;;;;14.01;67.38;100713.75;5072604;28;20189;-80
2022/12/26 10:56:27;;;;;;;23.42;12.48;;;;;;;14.01;66.99;100713.75;5073234;28;20056;-80
2022/12/26 10:59:01;;;;;;;20.17;11.20;;;;;;;14.00;66.86;100710.19;5073658;28;20050;-81
2022/12/26 11:01:33;;;;;;;19.08;11.35;;;;;;;13.98;67.27;100698.69;5073645;28;20119;-81
2022/12/26 11:04:04;;;;;;;20.33;11.27;;;;;;;14.01;67.25;100700.31;5073262;28;20050;-79
2022/12/26 11:06:36;;;;;;;20.42;11.88;;;;;;;13.99;67.27;100700.44;5073586;28;20559;-81
2022/12/26 11:09:06;;;;;;;20.77;11.32;;;;;;;13.99;67.20;100688.81;5071759;28;20053;-80
2022/12/26 11:11:45;;;;;;;27.42;11.65;;;;;;;14.00;67.06;100685.19;5073058;28;20106;-78
2022/12/26 11:14:29;;;;;;;21.33;11.18;;;;;;;13.99;67.02;100687.03;5073384;28;20048;-79
2022/12/26 11:17:06;;;;;;;21.50;11.65;;;;;;;14.00;66.83;100679.84;5073071;28;20433;-77
2022/12/26 11:19:37;;;;;;;18.77;11.02;;;;;;;13.97;66.79;100669.28;5073135;28;20044;-80
2022/12/26 11:22:24;;;;;;;20.17;10.50;;;;;;;13.99;66.74;100667.34;5071785;28;20045;-80
2022/12/26 11:25:17;;;;;;;20.67;12.30;;;;;;;14.01;66.90;100670.81;5071806;28;20067;-80
2022/12/26 11:27:47;;;;;;;20.50;11.05;;;;;;;14.00;66.82;100678.00;5063185;28;20072;-80
2022/12/26 11:30:25;;;;;;;19.25;11.30;;;;;;;14.00;67.07;100671.78;5071503;28;20063;-80
2022/12/26 11:33:13;;;;;;;19.13;10.50;;;;;;;14.01;66.94;100668.16;5073456;28;20086;-80
2022/12/26 11:35:48;;;;;;;21.42;11.57;;;;;;;14.00;66.81;100666.44;5071823;28;20044;-80
2022/12/26 11:38:35;;;;;;;20.02;11.30;;;;;;;14.00;66.62;100663.75;5072565;28;20041;-80
2022/12/26 11:41:38;;;;;;;21.05;11.35;;;;;;;13.99;66.86;100657.53;5072855;28;20132;-80
2022/12/26 11:44:33;;;;;;;18.85;11.05;;;;;;;13.99;66.70;100665.56;5072572;28;20048;-81
2022/12/26 11:47:10;;;;;;;20.48;11.35;;;;;;;14.00;66.71;100661.91;5063192;28;20052;-80
2022/12/26 11:49:46;;;;;;;19.05;10.88;;;;;;;14.01;66.83;100671.69;5071129;28;20052;-81
2022/12/26 11:52:36;;;;;;;19.52;10.82;;;;;;;13.99;67.08;100664.69;5070998;28;20049;-80
2022/12/26 11:55:26;;;;;;;19.60;11.63;;;;;;;14.00;67.02;100669.09;5071242;28;20085;-80
2022/12/26 11:57:59;;;;;;;19.33;11.88;;;;;;;13.99;66.78;100664.69;5072222;28;20098;-82
2022/12/26 12:00:29;;;;;;;20.17;11.55;;;;;;;14.01;66.92;100660.09;5071151;28;20409;-78
2022/12/26 12:02:57;;;;;;;20.30;11.38;;;;;;;14.03;66.49;100658.16;5071154;28;20136;-79
2022/12/26 12:05:47;;;;;;;20.90;11.45;;;;;;;14.00;66.56;100661.91;5071165;28;20048;-78
2022/12/26 12:08:26;;;;;;;19.95;11.60;;;;;;;14.03;66.63;100663.53;5072493;28;20053;-80
2022/12/26 12:11:05;;;;;;;18.27;10.77;;;;;;;14.04;66.39;100649.16;5072708;28;20055;-80
2022/12/26 12:13:45;;;;;;;20.05;12.02;;;;;;;14.06;66.39;100646.34;5073306;28;20073;-79
2022/12/26 12:16:31;;;;;;;21.85;11.73;;;;;;;14.08;66.36;100639.91;5072530;28;20063;-78
2022/12/26 12:19:15;;;;;;;19.85;11.20;;;;;;;14.08;66.29;100647.97;5072280;28;20132;-80
2022/12/26 12:21:50;;;;;;;18.75;11.13;;;;;;;14.09;66.30;100647.03;5072208;28;20073;-80
2022/12/26 12:24:35;;;;;;;21.42;11.43;;;;;;;14.09;66.21;100654.19;5070962;28;20493;-80
2022/12/26 12:27:13;;;;;;;19.73;11.15;;;;;;;14.09;66.18;100652.38;5072236;28;20040;-79
2022/12/26 12:30:07;;;;;;;20.35;11.15;;;;;;;14.11;66.14;100649.59;5072264;28;20057;-80
2022/12/26 12:32:50;;;;;;;21.08;11.90;;;;;;;14.10;66.14;100638.00;5072186;28;20044;-80
2022/12/26 12:35:54;;;;;;;18.00;10.80;;;;;;;14.13;66.13;100636.94;5072331;28;20441;-80
2022/12/26 12:38:30;;;;;;;19.88;11.05;;;;;;;14.14;66.25;100638.66;5072165;28;20044;-79
2022/12/26 12:41:10;;;;;;;20.17;11.48;;;;;;;14.16;66.24;100648.31;5071999;28;20048;-80
2022/12/26 12:43:44;;;;;;;19.55;11.15;;;;;;;14.17;66.44;100639.28;5072264;28;20040;-79
2022/12/26 12:46:22;;;;;;;20.63;11.15;;;;;;;14.17;66.44;100641.97;5073951;28;20098;-78
2022/12/26 12:49:14;;;;;;;18.35;11.38;;;;;;;14.19;66.46;100632.00;5076103;28;20044;-80
2022/12/26 12:51:50;;;;;;;21.17;10.82;;;;;;;14.22;66.37;100637.16;5075954;28;20056;-79
2022/12/26 12:54:40;;;;;;;18.40;10.82;;;;;;;14.22;66.36;100631.78;5075763;28;20054;-78
2022/12/26 12:57:17;;;;;;;19.08;11.00;;;;;;;14.22;66.37;100621.06;5075402;28;20044;-80
2022/12/26 12:59:56;;;;;;;20.52;11.57;;;;;;;14.24;66.48;100621.81;5076118;28;20402;-78
2022/12/26 13:02:31;;;;;;;19.20;10.55;;;;;;;14.26;66.49;100633.28;5075553;28;20040;-79
2022/12/26 13:05:11;;;;;;;19.70;11.30;;;;;;;14.28;66.61;100627.81;5075651;28;20047;-77
2022/12/26 13:07:45;;;;;;;19.85;11.20;;;;;;;14.27;66.46;100620.72;5074283;28;20072;-79
2022/12/26 13:10:21;;;;;;;20.40;12.13;;;;;;;14.29;66.54;100627.72;5074332;28;20071;-79
2022/12/26 13:12:51;;;;;;;20.52;11.90;;;;;;;14.29;66.68;100627.72;5075559;28;20095;-80
2022/12/26 13:15:32;;;;;;;19.33;10.85;;;;;;;14.30;66.59;100626.75;5075509;28;20050;-80
2022/12/26 13:18:05;;;;;;;18.10;10.07;;;;;;;14.28;66.70;100619.75;5075392;28;20075;-80
2022/12/26 13:20:40;;;;;;;18.63;10.95;;;;;;;14.30;66.59;100618.72;5074055;28;20052;-79
2022/12/26 13:26:09;;;;;;;;;;;;;;;14.31;66.65;100619.56;5074383;28;20048;-79
2022/12/26 13:28:51;;;;;;;19.17;10.38;;;;;;;14.31;66.47;100625.78;5074366;28;19931;-79
2022/12/26 13:31:20;;;;;;;20.67;11.15;;;;;;;14.31;66.59;100628.47;5075140;28;20086;-79
2022/12/26 13:33:52;;;;;;;19.35;11.55;;;;;;;14.32;66.49;100630.19;5075040;28;20123;-79
2022/12/26 13:36:42;;;;;;;19.77;11.60;;;;;;;14.33;66.53;100637.25;5073371;28;20055;-79
2022/12/26 13:39:32;;;;;;;17.55;10.85;;;;;;;14.33;66.38;100620.31;5074697;28;20462;-80
2022/12/26 13:45:47;;;;;;;19.15;10.93;;;;;;;14.35;66.39;100637.16;5074476;28;20048;-81
2022/12/26 13:49:05;;;;;;;17.65;10.82;;;;;;;14.33;66.42;100634.59;5074302;28;20505;-79
2022/12/26 13:51:56;;;;;;;20.60;11.50;;;;;;;14.36;66.31;100635.31;5072959;28;20538;-79